Time;durP1;ratioP1;P1;durP2;ratioP2;P2;SDS_P1;SDS_P2;PMS_P1;PMS_P2;Temp;Humidity;BMP_temperature;BMP_pressure;BME280_temperature;BME280_humidity;BME280_pressure;Samples;Min_cycle;Max_cycle;Signal;HPM_P1;HPM_P2
2023/06/16 01:40:08;;;;;;;3.58;2.55;;;16.60;94.60;;;17.05;84.23;101112.50;5160501;28;20046;-66
2023/06/16 01:42:41;;;;;;;4.13;2.58;;;16.70;95.00;;;17.04;83.74;101121.28;5161523;28;20057;-66
2023/06/16 01:45:14;;;;;;;3.88;2.45;;;16.60;94.80;;;17.03;84.03;101115.13;5163713;28;20070;-66
2023/06/16 01:47:47;;;;;;;4.05;2.85;;;16.60;94.90;;;17.00;84.31;101115.06;5146522;28;20427;-66
2023/06/16 01:50:20;;;;;;;4.35;2.53;;;16.60;95.10;;;16.96;84.72;101118.53;5170858;28;20043;-66
2023/06/16 01:52:54;;;;;;;4.38;2.70;;;16.60;95.30;;;16.94;84.71;101120.25;5179261;28;20046;-66
2023/06/16 01:55:28;;;;;;;4.03;2.55;;;16.50;95.40;;;16.90;84.64;101118.44;5158161;28;20115;-67
2023/06/16 01:58:02;;;;;;;3.85;2.50;;;16.50;95.40;;;16.86;84.97;101123.63;5167016;28;20042;-66
2023/06/16 02:00:41;;;;;;;4.80;2.95;;;16.40;95.60;;;16.81;85.04;101123.56;5176296;28;20038;-65
2023/06/16 02:03:20;;;;;;;4.78;2.80;;;16.40;95.70;;;16.75;84.68;101123.47;5157916;28;20056;-66
2023/06/16 02:05:54;;;;;;;4.82;2.83;;;16.40;95.60;;;16.71;84.96;101126.94;5176698;28;20078;-66
2023/06/16 02:08:28;;;;;;;4.03;3.00;;;16.30;95.80;;;16.68;85.33;101121.56;5157428;28;20540;-65
2023/06/16 02:11:02;;;;;;;4.55;2.80;;;16.30;96.00;;;16.66;85.79;101125.94;5156943;28;20050;-66
2023/06/16 02:13:36;;;;;;;5.20;2.92;;;16.20;96.20;;;16.64;85.40;101130.31;5154518;28;20046;-65
2023/06/16 02:16:09;;;;;;;3.83;2.53;;;16.20;96.40;;;16.64;84.71;101119.78;5171196;28;20089;-66
2023/06/16 02:18:42;;;;;;;5.38;2.67;;;16.20;95.90;;;16.62;84.04;101126.75;5153918;28;20047;-66
2023/06/16 02:21:16;;;;;;;3.92;2.42;;;16.20;95.70;;;16.59;83.95;101124.09;5155065;28;20073;-66
2023/06/16 02:23:49;;;;;;;5.03;2.95;;;16.20;95.60;;;16.57;84.07;101123.19;5158783;28;20522;-66
2023/06/16 02:26:26;;;;;;;3.80;2.30;;;16.20;95.70;;;16.53;83.92;101125.75;5162881;28;20246;-66
2023/06/16 02:28:58;;;;;;;4.57;2.70;;;16.20;95.70;;;16.51;84.07;101118.72;5153331;28;20082;-66
2023/06/16 02:31:31;;;;;;;3.40;2.58;;;16.10;95.80;;;16.48;84.28;101121.28;5170823;28;20495;-67
2023/06/16 02:34:04;;;;;;;5.15;2.80;;;16.10;95.90;;;16.45;84.77;101131.75;5161960;28;20061;-67
2023/06/16 02:36:36;;;;;;;3.72;2.55;;;16.00;96.30;;;16.40;85.06;101131.69;5157506;28;20089;-66
2023/06/16 02:39:09;;;;;;;4.88;2.47;;;16.10;96.30;;;16.37;85.62;101126.38;5166609;28;20045;-66
2023/06/16 02:41:44;;;;;;;4.45;2.80;;;16.00;96.50;;;16.34;86.53;101126.31;5164871;28;20053;-66
2023/06/16 02:44:16;;;;;;;6.22;2.92;;;15.90;96.90;;;16.34;86.88;101125.44;5154769;28;20050;-66
2023/06/16 02:46:49;;;;;;;3.55;2.67;;;15.90;97.20;;;16.34;87.15;101126.31;5145127;28;20058;-66
2023/06/16 02:49:22;;;;;;;4.15;2.72;;;15.90;97.40;;;16.32;87.09;101132.41;5152951;28;20108;-66
2023/06/16 02:51:55;;;;;;;6.75;2.90;;;15.90;97.50;;;16.30;87.32;101129.78;5162497;28;20034;-66
2023/06/16 02:54:29;;;;;;;4.32;2.78;;;15.90;97.60;;;16.24;87.24;101130.56;5166279;28;20125;-66
2023/06/16 02:57:07;;;;;;;5.18;2.95;;;15.90;97.60;;;16.21;87.48;101129.59;5164717;28;20046;-66
2023/06/16 02:59:49;;;;;;;4.22;2.72;;;15.80;97.70;;;16.19;87.04;101123.44;5164822;28;20046;-67
2023/06/16 03:02:23;;;;;;;;;;;15.80;97.60;;;16.16;86.91;101120.75;5149065;28;20135;-67
2023/06/16 03:05:01;;;;;;;3.80;2.63;;;15.80;97.60;;;16.13;87.02;101115.44;5157163;28;19922;-65
2023/06/16 03:07:35;;;;;;;5.78;2.90;;;15.70;97.60;;;16.12;86.98;101129.47;5144507;28;20058;-66
2023/06/16 03:10:11;;;;;;;5.30;2.72;;;15.70;97.70;;;16.10;87.06;101125.88;5152881;28;20128;-66
2023/06/16 03:13:06;;;;;;;3.95;2.53;;;15.70;97.80;;;16.09;86.85;101116.22;5164173;28;20050;-66
2023/06/16 03:15:39;;;;;;;4.45;2.83;;;15.70;97.70;;;16.13;86.15;101121.59;5152276;28;20246;-66
2023/06/16 03:18:12;;;;;;;4.47;2.85;;;15.70;97.50;;;16.13;86.07;101126.84;5145331;28;20049;-66
2023/06/16 03:20:47;;;;;;;4.35;2.75;;;15.80;97.50;;;16.14;86.48;101133.00;5150624;28;20050;-66
2023/06/16 03:23:27;;;;;;;4.65;2.80;;;15.80;97.60;;;16.10;86.31;101129.41;5177953;28;20042;-66
2023/06/16 03:25:59;;;;;;;4.88;2.92;;;15.70;97.50;;;16.09;87.05;101132.00;5152148;28;20058;-66
2023/06/16 03:28:51;;;;;;;4.32;3.08;;;15.70;97.80;;;16.07;87.29;101133.75;5164720;28;20082;-66
2023/06/16 03:31:25;;;;;;;3.35;2.50;;;15.70;98.00;;;16.03;87.77;101132.78;5163805;28;20116;-67
2023/06/16 03:33:57;;;;;;;5.90;3.15;;;15.70;98.20;;;16.01;88.18;101135.41;5157082;28;20042;-66
2023/06/16 03:36:32;;;;;;;5.63;2.72;;;15.70;98.40;;;16.00;88.64;101136.25;5155193;28;20064;-66
2023/06/16 03:39:06;;;;;;;4.70;2.85;;;15.60;98.60;;;16.00;88.62;101136.25;5164156;28;20152;-66
2023/06/16 03:41:41;;;;;;;5.63;3.08;;;15.60;98.70;;;16.01;87.71;101132.75;5163954;28;20046;-66
2023/06/16 03:44:16;;;;;;;5.18;2.80;;;15.60;98.40;;;16.05;86.56;101130.22;5154770;28;20097;-64
2023/06/16 03:46:49;;;;;;;5.38;2.90;;;15.70;98.00;;;16.04;86.64;101131.94;5158028;28;20061;-65
2023/06/16 03:49:23;;;;;;;7.68;3.40;;;15.70;98.00;;;16.05;86.99;101138.09;5155870;28;20050;-67
2023/06/16 03:51:57;;;;;;;4.10;2.90;;;15.70;98.10;;;16.05;87.40;101138.09;5156966;28;20046;-67
2023/06/16 03:54:31;;;;;;;6.00;3.00;;;15.70;98.30;;;16.05;87.54;101140.72;5152140;28;20046;-66
2023/06/16 03:57:03;;;;;;;4.30;2.83;;;15.70;98.40;;;16.03;87.96;101140.69;5151568;28;20072;-65
2023/06/16 03:59:38;;;;;;;5.32;2.70;;;15.70;98.60;;;16.02;88.66;101145.06;5151605;28;20421;-64
2023/06/16 04:02:11;;;;;;;4.63;2.80;;;15.70;98.80;;;16.02;89.15;101137.16;5152604;28;20149;-66
2023/06/16 04:04:51;;;;;;;5.07;2.70;;;15.70;99.10;;;16.04;89.20;101146.81;5157837;28;20042;-66
2023/06/16 04:07:27;;;;;;;4.82;2.58;;;15.70;99.20;;;16.02;89.65;101145.06;5143420;28;20050;-66
2023/06/16 04:10:00;;;;;;;4.50;2.72;;;15.70;99.30;;;16.04;88.84;101146.81;5143306;28;20042;-66
2023/06/16 04:12:32;;;;;;;3.95;2.58;;;15.70;99.10;;;16.05;88.96;101148.63;5143798;28;20054;-65
2023/06/16 04:15:21;;;;;;;;;;;;;;;;;;;;;
2023/06/16 04:17:56;;;;;;;5.13;2.92;;;15.70;99.00;;;16.06;88.21;101150.38;5107829;28;20043;-69
2023/06/16 04:20:29;;;;;;;7.07;3.13;;;15.70;98.90;;;16.09;87.68;101155.69;5118088;28;20411;-69
2023/06/16 04:23:01;;;;;;;4.72;2.85;;;15.80;98.70;;;16.10;88.14;101149.56;5120678;28;20043;-69
2023/06/16 04:25:35;;;;;;;5.97;2.67;;;15.70;98.90;;;16.11;88.81;101149.59;5119835;28;20086;-69
2023/06/16 04:28:14;;;;;;;5.18;3.13;;;15.80;99.10;;;16.16;88.72;101154.94;5103381;28;20150;-69
2023/06/16 04:30:50;;;;;;;5.18;2.92;;;15.80;99.20;;;16.22;88.20;101152.41;5103308;29;20055;-69
2023/06/16 04:33:22;;;;;;;5.70;2.97;;;15.80;99.00;;;16.25;87.36;101153.38;5103513;28;20043;-69
2023/06/16 04:35:56;;;;;;;5.65;3.00;;;15.90;98.70;;;16.35;87.59;101159.66;5103801;29;20094;-69
2023/06/16 04:38:28;;;;;;;4.10;2.95;;;16.00;98.80;;;16.41;87.41;101156.25;5103924;28;20129;-68
2023/06/16 04:41:02;;;;;;;5.50;2.95;;;16.00;98.70;;;16.47;87.22;101161.59;5103790;29;20047;-68
2023/06/16 04:43:35;;;;;;;5.63;3.10;;;16.10;98.60;;;16.51;86.85;101161.69;5104108;29;20106;-69
2023/06/16 04:46:10;;;;;;;5.30;3.25;;;16.20;98.40;;;16.61;86.59;101161.81;5103922;28;20047;-69
2023/06/16 04:48:43;;;;;;;4.82;2.80;;;16.20;98.40;;;16.80;86.71;101159.53;5104198;29;20066;-69
2023/06/16 04:51:15;;;;;;;4.78;3.40;;;16.40;98.50;;;17.19;86.63;101158.34;5103266;28;20058;-69
2023/06/16 04:53:48;;;;;;;7.05;3.45;;;16.60;98.60;;;17.74;82.56;101158.19;5103743;28;20398;-69
2023/06/16 04:56:20;;;;;;;6.57;3.50;;;17.10;97.20;;;18.34;79.54;101151.75;5112519;28;20058;-68
2023/06/16 04:58:53;;;;;;;6.30;3.80;;;17.50;95.80;;;18.97;76.76;101151.38;5118141;29;20400;-69
2023/06/16 05:01:27;;;;;;;6.80;3.42;;;18.10;94.60;;;19.56;73.36;101155.19;5117883;28;20078;-68
2023/06/16 05:04:00;;;;;;;7.28;3.30;;;18.70;92.90;;;20.14;70.68;101150.06;5123650;28;20067;-68
2023/06/16 05:06:36;;;;;;;8.90;3.78;;;19.20;91.40;;;20.47;67.37;101151.00;5115754;28;20137;-69
2023/06/16 05:09:09;;;;;;;5.25;3.20;;;19.60;89.10;;;20.63;66.12;101152.75;5117785;28;20043;-69
2023/06/16 05:11:42;;;;;;;6.38;3.70;;;19.80;87.00;;;20.65;65.77;101150.09;5116392;29;20057;-69
2023/06/16 05:14:14;;;;;;;5.78;3.60;;;19.90;86.00;;;20.67;66.43;101157.19;5121438;28;20047;-69
2023/06/16 05:16:49;;;;;;;8.27;3.83;;;20.00;86.10;;;20.86;65.58;101150.97;5119982;28;20043;-69
2023/06/16 05:19:23;;;;;;;6.60;3.38;;;20.20;85.10;;;21.24;64.96;101149.97;5117923;28;20190;-69
2023/06/16 05:22:02;;;;;;;8.18;3.95;;;20.50;84.60;;;21.64;63.58;101149.84;5117148;29;20178;-69
2023/06/16 05:24:36;;;;;;;;;;;20.80;83.00;;;22.06;62.43;101158.47;5114703;28;20053;-68
2023/06/16 05:27:09;;;;;;;7.82;3.60;;;21.20;81.70;;;22.39;61.45;101160.88;5111916;28;19962;-69
2023/06/16 05:29:41;;;;;;;8.15;3.92;;;21.60;80.50;;;22.74;61.22;101155.25;5118676;29;20050;-69
2023/06/16 05:32:15;;;;;;;7.68;3.92;;;21.90;80.10;;;23.23;60.09;101157.44;5120226;28;20101;-69
2023/06/16 05:34:48;;;;;;;9.73;3.92;;;22.30;78.80;;;23.70;58.73;101157.78;5107138;29;20106;-69
2023/06/16 05:37:22;;;;;;;8.60;3.70;;;22.60;77.70;;;24.12;57.42;101152.72;5106707;28;20071;-69
2023/06/16 05:39:55;;;;;;;9.23;3.70;;;23.00;75.80;;;24.39;56.17;101148.78;5107051;29;20055;-68
2023/06/16 05:42:27;;;;;;;8.02;3.30;;;23.30;74.00;;;24.32;55.19;101158.59;5105685;28;20082;-68
2023/06/16 05:45:00;;;;;;;8.48;3.75;;;23.40;72.40;;;24.13;55.61;101162.50;5106969;29;20050;-69
2023/06/16 05:47:34;;;;;;;6.70;4.18;;;23.20;72.30;;;24.34;56.02;101164.84;5114499;28;20744;-67
2023/06/16 05:50:08;;;;;;;6.53;3.20;;;23.30;72.50;;;24.70;54.59;101165.13;5105915;29;20106;-69
2023/06/16 05:52:40;;;;;;;6.53;3.28;;;23.70;71.50;;;24.99;52.95;101184.16;5120608;28;21264;-68
2023/06/16 05:55:13;;;;;;;7.25;3.42;;;23.80;70.30;;;25.27;52.17;101172.97;5120470;28;20039;-69
2023/06/16 05:57:52;;;;;;;5.70;3.05;;;24.10;69.10;;;25.64;51.53;101168.66;5102789;28;20512;-68
2023/06/16 06:00:24;;;;;;;5.10;3.30;;;24.40;68.00;;;26.02;50.84;101168.72;5104596;28;20055;-68
2023/06/16 06:03:05;;;;;;;11.23;3.30;;;24.70;67.00;;;26.33;50.72;101168.88;5113682;29;20043;-67
2023/06/16 06:05:41;;;;;;;7.32;3.13;;;25.10;66.70;;;26.51;49.56;101176.47;5110502;29;20049;-58
2023/06/16 06:08:15;;;;;;;6.53;3.30;;;25.30;65.20;;;26.63;49.62;101185.97;5104146;28;20051;-58
2023/06/16 06:10:49;;;;;;;7.45;3.38;;;25.40;65.00;;;26.76;49.26;101182.06;5104588;29;20043;-58
2023/06/16 06:13:21;;;;;;;7.95;3.25;;;25.50;64.40;;;27.04;48.71;101190.22;5102867;28;20049;-58
2023/06/16 06:15:54;;;;;;;5.75;3.25;;;25.80;64.00;;;27.25;47.95;101187.00;5099954;28;20070;-61
2023/06/16 06:18:27;;;;;;;9.07;3.47;;;26.00;62.70;;;27.43;46.80;101187.41;5120845;28;20055;-61
2023/06/16 06:20:59;;;;;;;6.18;3.03;;;26.20;61.70;;;27.58;45.99;101194.97;5122461;28;20531;-58
2023/06/16 06:23:32;;;;;;;7.28;3.20;;;26.30;60.50;;;27.78;46.94;101194.44;5108547;28;20054;-58
2023/06/16 06:26:04;;;;;;;5.57;3.03;;;26.50;61.40;;;27.95;45.40;101197.47;5101517;29;20575;-61
2023/06/16 06:28:37;;;;;;;5.13;3.40;;;26.70;60.60;;;27.87;45.17;101201.31;5111300;28;20102;-61
2023/06/16 06:31:09;;;;;;;6.35;3.60;;;26.70;59.40;;;27.75;44.83;101205.22;5106988;28;20043;-62
2023/06/16 06:33:42;;;;;;;6.30;3.17;;;26.60;58.90;;;27.79;45.19;101202.44;5119456;28;20130;-62
2023/06/16 06:36:22;;;;;;;5.57;3.38;;;26.50;59.00;;;27.74;45.66;101209.72;5106626;28;20508;-61
2023/06/16 06:38:55;;;;;;;7.40;3.03;;;26.60;59.40;;;27.74;45.03;101215.06;5105290;29;20047;-62
2023/06/16 06:41:27;;;;;;;6.68;3.60;;;26.50;58.80;;;27.81;44.49;101216.66;5110731;28;20051;-62
2023/06/16 06:44:06;;;;;;;5.28;3.30;;;26.60;58.30;;;27.91;45.89;101217.25;5115057;28;20575;-62
2023/06/16 06:46:55;;;;;;;7.18;3.20;;;26.70;59.50;;;28.17;45.93;101219.13;5119126;28;20047;-63
2023/06/16 06:49:31;;;;;;;5.63;2.72;;;26.80;59.40;;;28.27;46.39;101225.06;5126340;28;20451;-62
2023/06/16 06:52:04;;;;;;;4.35;2.70;;;27.00;60.00;;;27.98;46.83;101226.00;5144349;28;20053;-61
2023/06/16 06:54:36;;;;;;;6.07;2.90;;;26.90;60.00;;;27.61;47.12;101235.06;5143740;28;20133;-62
2023/06/16 06:57:08;;;;;;;4.30;2.65;;;26.60;59.80;;;27.17;47.39;101225.59;5143795;28;20050;-62
2023/06/16 06:59:42;;;;;;;7.28;3.20;;;26.30;59.80;;;26.82;48.51;101226.50;5143567;28;20042;-61
2023/06/16 07:02:16;;;;;;;5.80;3.03;;;26.00;60.60;;;26.57;49.21;101220.88;5143437;28;20121;-62
2023/06/16 07:04:49;;;;;;;5.25;2.97;;;25.80;61.40;;;26.24;49.86;101224.28;5143075;28;20125;-61
2023/06/16 07:07:22;;;;;;;6.63;3.35;;;25.50;61.70;;;26.03;51.06;101224.78;5143518;28;20441;-61
2023/06/16 07:09:54;;;;;;;4.43;2.90;;;25.30;62.80;;;26.00;51.82;101229.31;5143108;28;20145;-61
2023/06/16 07:12:26;;;;;;;9.25;3.00;;;25.20;63.50;;;25.96;51.82;101233.84;5143359;28;20045;-62
2023/06/16 07:14:58;;;;;;;7.03;3.00;;;25.10;63.60;;;25.96;51.58;101228.53;5125748;28;20065;-61
2023/06/16 07:17:31;;;;;;;7.30;3.28;;;25.10;64.30;;;25.93;52.04;101232.13;5132328;28;20047;-60
2023/06/16 07:20:07;;;;;;;7.07;3.38;;;25.00;63.80;;;25.98;52.65;101232.91;5122578;28;20047;-60
2023/06/16 07:22:39;;;;;;;5.85;3.42;;;25.00;64.50;;;26.04;52.64;101231.91;5105640;29;20069;-61
2023/06/16 07:25:13;;;;;;;5.05;3.20;;;25.10;64.60;;;26.02;52.47;101228.38;5105552;29;20145;-61
2023/06/16 07:27:46;;;;;;;5.32;3.10;;;25.10;64.40;;;26.09;52.39;101232.69;5120218;28;20047;-63
2023/06/16 07:30:18;;;;;;;5.18;3.05;;;25.10;64.50;;;26.15;52.63;101239.69;5111367;28;20074;-64
2023/06/16 07:32:50;;;;;;;6.00;2.88;;;25.20;64.60;;;26.27;52.00;101246.50;5115496;28;20039;-63
2023/06/16 07:35:24;;;;;;;5.00;3.20;;;25.20;64.30;;;26.31;51.61;101237.53;5119482;28;20111;-66
2023/06/16 07:37:56;;;;;;;6.47;3.50;;;25.30;63.90;;;26.30;52.25;101238.44;5124001;28;20050;-64
2023/06/16 07:40:28;;;;;;;9.05;3.42;;;25.30;64.30;;;26.38;52.58;101241.81;5122051;28;20409;-64
2023/06/16 07:43:00;;;;;;;5.25;3.28;;;25.30;64.60;;;26.50;52.26;101242.41;5128516;28;20039;-64
2023/06/16 07:45:33;;;;;;;5.97;3.20;;;25.40;64.60;;;26.64;52.21;101234.06;5131242;28;20051;-64
2023/06/16 07:48:07;;;;;;;4.25;3.08;;;25.50;64.30;;;26.78;51.68;101239.94;5122685;28;20057;-60
2023/06/16 07:50:41;;;;;;;4.05;2.83;;;25.70;64.30;;;26.89;51.53;101238.81;5122583;28;20043;-60
2023/06/16 07:53:13;;;;;;;5.40;2.97;;;25.80;64.00;;;27.01;51.14;101227.78;5122624;28;20081;-61
2023/06/16 07:55:45;;;;;;;6.13;3.10;;;25.80;63.80;;;27.14;51.03;101233.72;5122719;28;20081;-60
2023/06/16 07:58:19;;;;;;;4.90;3.10;;;25.90;63.60;;;27.29;50.75;101231.50;5122704;28;20053;-60
2023/06/16 08:00:52;;;;;;;;;;;26.10;63.60;;;27.50;50.44;101237.16;5122422;28;20062;-59
2023/06/16 08:03:24;;;;;;;5.32;3.15;;;26.20;63.40;;;27.76;49.60;101231.09;5120404;28;19927;-62
2023/06/16 08:05:58;;;;;;;5.55;2.83;;;26.30;62.70;;;28.06;49.91;101231.97;5114812;28;20137;-62
2023/06/16 08:08:32;;;;;;;4.72;2.78;;;26.50;63.00;;;28.36;48.61;101220.34;5119188;28;20049;-63
2023/06/16 08:11:06;;;;;;;5.93;2.95;;;26.70;62.90;;;28.65;48.42;101215.81;5121480;28;20038;-63
2023/06/16 08:13:38;;;;;;;4.53;2.85;;;26.90;62.20;;;29.05;47.42;101219.84;5122043;28;20520;-62
2023/06/16 08:16:10;;;;;;;5.70;2.63;;;27.10;61.70;;;29.53;46.65;101216.31;5122008;28;20066;-62
2023/06/16 08:18:42;;;;;;;4.55;2.58;;;27.40;61.50;;;30.02;45.60;101219.84;5121955;28;20047;-63
2023/06/16 08:21:15;;;;;;;6.40;3.00;;;27.70;60.60;;;30.53;45.40;101215.06;5121517;28;20042;-63
2023/06/16 08:23:48;;;;;;;4.97;2.78;;;27.90;60.50;;;31.15;44.33;101218.72;5114278;28;20258;-62
2023/06/16 08:26:20;;;;;;;3.75;2.50;;;28.30;60.30;;;31.85;43.10;101217.38;5104885;28;20043;-62
2023/06/16 08:28:52;;;;;;;5.05;2.65;;;28.70;59.50;;;32.46;41.54;101214.41;5124147;28;20408;-63
2023/06/16 08:31:25;;;;;;;3.95;2.83;;;29.00;58.50;;;33.00;40.67;101212.63;5124371;28;20050;-62
2023/06/16 08:33:59;;;;;;;5.43;2.47;;;29.30;58.00;;;33.71;39.26;101204.28;5125446;28;20051;-62
2023/06/16 08:36:33;;;;;;;5.43;2.50;;;29.60;57.10;;;34.58;37.84;101210.19;5125120;28;20075;-63
2023/06/16 08:39:05;;;;;;;4.93;2.65;;;30.00;56.40;;;35.50;35.98;101218.16;5125677;28;20405;-63
2023/06/16 08:41:38;;;;;;;4.72;2.35;;;30.60;54.90;;;36.44;35.16;101210.28;5125187;28;20046;-62
2023/06/16 08:44:11;;;;;;;4.80;2.50;;;31.30;54.10;;;37.30;33.79;101207.97;5125888;28;20448;-63
2023/06/16 08:46:44;;;;;;;3.17;2.47;;;32.20;52.70;;;37.90;33.06;101213.63;5124797;28;20047;-63
2023/06/16 08:49:18;;;;;;;4.45;2.47;;;32.80;51.40;;;38.46;32.52;101215.84;5125750;28;20459;-62
2023/06/16 08:51:52;;;;;;;4.22;2.28;;;33.50;50.40;;;39.09;30.99;101220.91;5113000;28;20115;-64
2023/06/16 08:54:26;;;;;;;3.90;2.50;;;34.20;49.30;;;39.53;31.20;101219.28;5120580;28;20035;-64
2023/06/16 08:57:01;;;;;;;3.67;2.40;;;34.70;49.20;;;39.94;30.44;101211.47;5120199;28;20054;-63
2023/06/16 08:59:34;;;;;;;2.83;2.38;;;35.10;48.10;;;40.21;29.72;101219.25;5119764;28;20062;-66
2023/06/16 09:02:07;;;;;;;3.70;2.50;;;35.40;47.40;;;40.59;29.68;101214.19;5129683;28;20117;-65
2023/06/16 09:04:41;;;;;;;4.47;2.35;;;35.80;46.70;;;40.71;28.91;101215.00;5125909;29;20051;-66
2023/06/16 09:07:19;;;;;;;3.72;2.35;;;36.00;45.90;;;40.55;28.50;101217.28;5117345;28;20047;-66
2023/06/16 09:09:51;;;;;;;3.90;2.50;;;35.90;45.30;;;40.51;27.88;101213.09;5112211;28;20039;-66
2023/06/16 09:12:23;;;;;;;4.32;2.15;;;36.00;44.70;;;40.40;27.16;101208.50;5124126;28;20039;-65
2023/06/16 09:14:55;;;;;;;3.22;2.00;;;35.90;43.50;;;40.57;26.49;101208.00;5123899;28;20039;-65
2023/06/16 09:17:30;;;;;;;3.55;2.10;;;36.00;43.10;;;40.60;26.07;101212.31;5122639;28;20059;-63
2023/06/16 09:20:06;;;;;;;4.72;2.13;;;36.10;42.40;;;40.30;25.60;101213.00;5121453;28;20452;-62
2023/06/16 09:22:39;;;;;;;3.95;2.20;;;36.00;41.70;;;39.77;26.33;101210.97;5114686;28;20061;-63
2023/06/16 09:25:12;;;;;;;2.63;2.10;;;35.70;42.00;;;39.39;26.80;101200.44;5122733;28;20047;-63
2023/06/16 09:27:46;;;;;;;3.58;2.10;;;35.60;42.50;;;38.91;26.69;101200.56;5111405;28;20145;-63
2023/06/16 09:30:20;;;;;;;4.00;2.35;;;35.40;42.00;;;38.14;27.77;101199.16;5112753;28;20109;-63
2023/06/16 09:32:53;;;;;;;2.75;2.00;;;35.00;42.60;;;37.50;28.28;101198.44;5115826;28;20046;-63
2023/06/16 09:35:28;;;;;;;3.00;2.20;;;34.70;42.80;;;36.86;29.19;101201.97;5117207;28;20058;-63
2023/06/16 09:38:03;;;;;;;3.28;2.38;;;34.50;43.10;;;35.89;29.73;101193.91;5116761;28;20050;-63
2023/06/16 09:40:38;;;;;;;3.40;2.35;;;34.00;43.50;;;34.88;31.02;101184.91;5121068;28;20053;-63
2023/06/16 09:43:13;;;;;;;4.57;2.70;;;33.30;44.20;;;34.04;32.69;101171.81;5113456;28;20046;-62
2023/06/16 09:45:46;;;;;;;4.60;2.60;;;32.70;45.20;;;33.38;33.14;101171.84;5108115;28;20039;-62
2023/06/16 09:48:18;;;;;;;5.10;2.50;;;32.20;45.50;;;32.85;33.44;101178.25;5114295;28;20061;-64
2023/06/16 09:50:53;;;;;;;4.88;2.60;;;31.80;45.60;;;32.33;33.89;101170.13;5104070;28;20050;-62
2023/06/16 09:53:27;;;;;;;4.15;2.45;;;31.30;45.90;;;32.13;35.23;101169.25;5114676;28;20047;-61
2023/06/16 09:56:00;;;;;;;4.35;2.42;;;31.10;46.90;;;32.11;35.72;101170.28;5122193;28;20036;-61
2023/06/16 09:58:32;;;;;;;3.10;2.45;;;31.00;47.40;;;32.08;34.72;101160.53;5122211;28;20538;-63
2023/06/16 10:01:05;;;;;;;3.75;2.33;;;31.00;46.60;;;32.07;35.42;101164.16;5121786;28;20098;-62
2023/06/16 10:03:39;;;;;;;3.28;2.28;;;31.00;47.10;;;32.05;35.51;101155.28;5147033;23;20662;-83
2023/06/16 10:09:01;;;;;;;3.72;2.50;;;30.90;46.60;;;31.85;34.70;101160.78;5235551;23;20050;-86
2023/06/16 10:11:33;;;;;;;3.78;2.50;;;30.80;46.60;;;31.67;35.50;101154.41;5164975;28;20092;-85
2023/06/16 10:14:09;;;;;;;7.03;2.80;;;30.70;47.10;;;31.50;36.55;101157.03;5167662;28;20419;-84
2023/06/16 10:16:42;;;;;;;5.28;2.65;;;30.50;47.80;;;31.43;36.29;101161.84;5161750;28;20093;-87
2023/06/16 10:19:14;;;;;;;3.20;2.40;;;30.40;47.80;;;31.41;36.80;101157.44;5155019;28;20049;-85
2023/06/16 10:21:47;;;;;;;3.83;2.30;;;30.40;48.10;;;31.33;36.01;101152.41;5172710;23;20077;-63
2023/06/16 10:24:21;;;;;;;4.38;2.63;;;30.30;47.40;;;31.37;35.65;101156.72;5197041;28;20124;-62
2023/06/16 10:26:54;;;;;;;5.00;2.70;;;30.30;47.20;;;31.38;35.82;101147.69;5176402;28;20057;-61
2023/06/16 10:29:28;;;;;;;3.28;2.40;;;30.30;47.20;;;31.37;36.23;101148.66;5184474;28;20049;-61
2023/06/16 10:32:06;;;;;;;3.92;2.67;;;30.30;47.60;;;31.21;36.78;101158.31;5203523;28;20048;-57
2023/06/16 10:34:49;;;;;;;3.40;2.60;;;30.20;47.90;;;31.04;37.21;101149.22;5203964;28;20049;-57
2023/06/16 10:37:24;;;;;;;4.93;2.63;;;30.10;48.20;;;31.00;35.74;101147.59;5203718;28;20053;-58
2023/06/16 10:39:58;;;;;;;5.15;2.53;;;30.00;47.30;;;30.99;35.83;101151.22;5203769;28;20056;-59
2023/06/16 10:42:34;;;;;;;4.18;2.80;;;30.00;47.10;;;31.03;37.05;101147.44;5192146;28;20057;-58
2023/06/16 10:45:25;;;;;;;4.13;2.33;;;30.00;48.10;;;30.91;36.86;101130.97;5183174;28;20093;-60
2023/06/16 10:47:59;;;;;;;3.83;2.83;;;29.90;48.10;;;30.90;37.33;101124.69;5188724;23;20046;-65
2023/06/16 10:50:33;;;;;;;;;;;29.90;48.50;;;30.94;37.71;101126.31;5162754;28;20526;-61
2023/06/16 10:53:13;;;;;;;5.40;2.72;;;29.90;48.80;;;30.87;37.99;101121.28;5175563;28;19922;-62
2023/06/16 10:55:48;;;;;;;;;;;29.80;49.10;;;30.61;37.66;101122.41;5168907;28;20046;-61
2023/06/16 10:58:32;;;;;;;10.40;4.82;;;29.70;48.50;;;30.69;37.59;101131.91;5146319;28;19926;-63
2023/06/16 11:01:22;;;;;;;16.13;7.32;;;29.70;48.70;;;30.92;38.10;101127.34;5164699;28;20133;-61
2023/06/16 11:04:02;;;;;;;28.67;13.80;;;29.80;49.10;;;31.04;35.44;101124.09;5158781;28;20046;-62
2023/06/16 11:07:08;;;;;;;34.45;17.00;;;29.90;47.70;;;31.15;36.23;101129.00;5162407;28;20047;-61
2023/06/16 11:09:40;;;;;;;34.22;14.52;;;30.00;47.50;;;31.28;37.15;101124.81;5155349;28;20570;-61
2023/06/16 11:12:17;;;;;;;15.75;7.25;;;30.10;48.40;;;31.33;37.05;101134.44;5162243;28;20034;-61
2023/06/16 11:14:49;;;;;;;9.98;5.32;;;30.20;48.30;;;31.19;36.55;101119.84;5164033;28;20568;-60
2023/06/16 11:17:21;;;;;;;7.32;3.90;;;30.10;47.70;;;30.91;36.63;101125.56;5163438;28;20625;-60
2023/06/16 11:19:54;;;;;;;4.72;3.05;;;30.00;47.70;;;30.66;36.25;101126.66;5163935;28;20043;-60
2023/06/16 11:22:31;;;;;;;4.53;2.80;;;29.80;47.60;;;30.61;36.40;101119.72;5162144;28;20069;-59
2023/06/16 11:25:04;;;;;;;6.00;2.83;;;29.60;47.70;;;30.62;35.64;101110.69;5163772;28;20476;-60
2023/06/16 11:27:39;;;;;;;4.43;2.58;;;29.60;47.20;;;30.54;35.36;101109.22;5177816;28;20050;-59
2023/06/16 11:30:13;;;;;;;3.83;2.50;;;29.50;46.60;;;30.73;36.21;101111.13;5162164;28;20050;-61
2023/06/16 11:32:48;;;;;;;5.65;2.85;;;29.60;47.30;;;30.90;36.20;101105.00;5157937;28;20042;-62
2023/06/16 11:35:20;;;;;;;3.85;2.53;;;29.80;47.70;;;30.80;35.96;101104.53;5163388;28;20407;-65
2023/06/16 11:37:55;;;;;;;5.55;2.80;;;29.70;47.10;;;30.58;36.26;101096.50;5158519;28;20062;-63
2023/06/16 11:40:28;;;;;;;5.63;2.63;;;29.60;47.30;;;30.51;36.23;101108.47;5162105;28;20129;-60
2023/06/16 11:43:03;;;;;;;;;;;29.60;47.50;;;30.42;36.64;101104.34;5137581;28;20109;-62
2023/06/16 11:45:37;;;;;;;4.90;2.67;;;29.50;47.40;;;30.54;36.26;101101.16;5145382;28;19926;-61
2023/06/16 11:48:10;;;;;;;3.33;2.38;;;29.50;47.40;;;30.73;36.45;101105.75;5162212;28;20042;-61
2023/06/16 11:50:44;;;;;;;3.53;2.38;;;29.70;47.70;;;30.84;35.97;101105.25;5159502;28;20038;-61
2023/06/16 11:53:16;;;;;;;;;;;29.80;47.30;;;30.88;36.00;101110.44;5163555;28;20031;-60
2023/06/16 11:55:52;;;;;;;4.35;2.45;;;29.80;47.20;;;30.80;35.32;101096.47;5163138;28;19921;-62
2023/06/16 11:58:27;;;;;;;3.88;2.78;;;29.80;46.40;;;30.74;35.77;101096.75;5161430;28;20042;-60
2023/06/16 12:01:03;;;;;;;4.10;2.72;;;29.80;47.10;;;30.71;36.43;101102.25;5159416;28;20546;-61
2023/06/16 12:03:37;;;;;;;4.07;2.72;;;29.70;47.40;;;30.49;35.74;101087.00;5163258;28;20077;-61
2023/06/16 12:06:10;;;;;;;4.47;2.53;;;29.60;46.90;;;30.37;35.88;101092.91;5162311;28;20042;-60
2023/06/16 12:08:45;;;;;;;3.25;2.35;;;29.50;46.90;;;30.20;34.54;101076.66;5140678;28;20156;-60
2023/06/16 12:11:23;;;;;;;5.40;2.97;;;29.30;45.60;;;30.06;34.84;101066.44;5163306;28;20426;-61
2023/06/16 12:13:58;;;;;;;4.60;2.78;;;29.20;46.00;;;30.26;36.27;101079.06;5161760;28;20074;-60
2023/06/16 12:16:32;;;;;;;5.50;2.60;;;29.30;47.50;;;30.52;36.72;101069.88;5162295;28;20046;-60
2023/06/16 12:19:05;;;;;;;3.88;2.72;;;29.50;47.70;;;30.41;35.78;101075.72;5163090;28;20578;-61
2023/06/16 12:21:38;;;;;;;4.30;2.70;;;29.50;47.10;;;30.25;35.52;101071.94;5145159;28;20047;-61
2023/06/16 12:24:11;;;;;;;4.55;2.53;;;29.40;46.80;;;30.24;36.13;101070.19;5162626;28;20038;-61
2023/06/16 12:26:44;;;;;;;6.57;2.35;;;29.40;47.00;;;30.19;35.84;101066.81;5153624;28;20042;-61